createdAt,value
2017-05-01T00:04:25.814Z,1000.4
2017-05-01T00:14:40.683Z,1000.4
2017-05-01T00:24:56.277Z,1000.3
2017-05-01T00:35:10.243Z,1000.2
2017-05-01T00:45:25.267Z,1000.2
2017-05-01T00:55:39.568Z,1000.1
2017-05-01T01:05:53.738Z,1000.1
2017-05-01T01:16:08.983Z,1000.2
2017-05-01T01:26:23.578Z,1000.2
2017-05-01T01:36:38.008Z,1000.2
2017-05-01T01:46:53.372Z,1000.2
2017-05-01T01:57:08.696Z,1000.2
2017-05-01T02:07:23.144Z,1000.2
2017-05-01T02:17:38.493Z,1000.2
2017-05-01T02:27:52.897Z,1000.1
2017-05-01T02:38:07.128Z,1000
2017-05-01T02:48:22.042Z,1000
2017-05-01T02:58:36.753Z,999.9
2017-05-01T03:08:50.681Z,1000
2017-05-01T03:19:05.723Z,1000.1
2017-05-01T03:29:20.581Z,1000.2
2017-05-01T03:39:35.707Z,1000.4
2017-05-01T03:49:50.778Z,1000.3
2017-05-01T04:00:06.055Z,1000.4
2017-05-01T04:10:20.772Z,1000.5
2017-05-01T04:20:35.206Z,1000.5
2017-05-01T04:30:50.166Z,1000.5
2017-05-01T04:41:05.753Z,1000.6
2017-05-01T04:51:20.917Z,1000.6
2017-05-01T05:01:35.573Z,1000.8
2017-05-01T05:11:49.604Z,1000.9
2017-05-01T05:22:04.148Z,1001
2017-05-01T05:32:18.477Z,1001.2
2017-05-01T05:42:32.679Z,1001.3
2017-05-01T05:52:47.644Z,1001.4
2017-05-01T06:03:03.218Z,1001.5
2017-05-01T06:13:18.009Z,1001.6
2017-05-01T06:23:32.601Z,1001.7
2017-05-01T06:33:48.142Z,1001.9
2017-05-01T06:44:02.198Z,1002
2017-05-01T06:54:16.529Z,1002.2
2017-05-01T07:04:31.534Z,1002.2
2017-05-01T07:14:45.326Z,1002.4
2017-05-01T07:24:59.972Z,1002.5
2017-05-01T07:35:15.307Z,1002.7
2017-05-01T07:45:29.805Z,1002.8
2017-05-01T07:55:44.520Z,1003
2017-05-01T08:05:58.320Z,1003.3
2017-05-01T08:16:13.286Z,1003.5
2017-05-01T08:26:28.791Z,1003.6
2017-05-01T08:36:43.919Z,1003.6
2017-05-01T08:46:57.939Z,1003.6
2017-05-01T08:57:11.969Z,1003.7
2017-05-01T09:07:26.010Z,1003.8
2017-05-01T09:17:40.187Z,1004
2017-05-01T09:27:54.471Z,1003.7
2017-05-01T09:38:08.659Z,1003.8
2017-05-01T09:48:22.934Z,1003.9
2017-05-01T09:58:37.222Z,1004
2017-05-01T10:08:52.950Z,1004
2017-05-01T10:19:08.132Z,1004.2
2017-05-01T10:29:22.935Z,1004.2
2017-05-01T10:39:36.734Z,1004.3
2017-05-01T10:49:52.321Z,1004.4
2017-05-01T11:00:07.853Z,1004.5
2017-05-01T11:10:21.876Z,1004.7
2017-05-01T11:20:36.674Z,1004.8
2017-05-01T11:30:51.522Z,1005
2017-05-01T11:41:06.012Z,1005.1
2017-05-01T11:51:20.164Z,1005.1
2017-05-01T12:01:34.190Z,1005.2
2017-05-01T12:11:49.455Z,1005.3
2017-05-01T12:22:04.706Z,1005.5
2017-05-01T12:32:18.681Z,1005.6
2017-05-01T12:42:32.942Z,1005.5
2017-05-01T12:52:48.697Z,1005.7
2017-05-01T13:03:03.916Z,1005.7
2017-05-01T13:13:18.852Z,1005.8
2017-05-01T13:23:33.720Z,1006
2017-05-01T13:33:47.652Z,1006.1
2017-05-01T13:44:01.975Z,1006.3
2017-05-01T13:54:16.196Z,1006.2
2017-05-01T14:04:31.874Z,1006.1
2017-05-01T14:14:46.802Z,1006.2
2017-05-01T14:25:00.804Z,1006.2
2017-05-01T14:35:15.600Z,1006.5
2017-05-01T14:45:30.433Z,1006.5
2017-05-01T14:55:44.907Z,1006.7
2017-05-01T15:06:00.299Z,1006.5
2017-05-01T15:16:14.989Z,1006.7
2017-05-01T15:26:29.352Z,1006.8
2017-05-01T15:36:43.539Z,1006.9
2017-05-01T15:46:57.527Z,1007
2017-05-01T15:57:13.156Z,1007
2017-05-01T16:07:28.033Z,1007.1
2017-05-01T16:17:43.384Z,1007.1
2017-05-01T16:27:58.215Z,1007.1
2017-05-01T16:38:13.734Z,1007.1
2017-05-01T16:48:28.325Z,1007.2
2017-05-01T16:58:43.023Z,1007.3
2017-05-01T17:08:57.809Z,1007.3
2017-05-01T17:19:12.131Z,1007.4
2017-05-01T17:29:26.023Z,1007.6
2017-05-01T17:39:41.375Z,1007.6
2017-05-01T17:49:56.826Z,1007.7
2017-05-01T18:00:12.102Z,1007.8
2017-05-01T18:10:26.113Z,1007.9
2017-05-01T18:20:40.006Z,1008
2017-05-01T18:30:55.310Z,1008.1
2017-05-01T18:41:10.834Z,1008.1
2017-05-01T18:51:24.611Z,1008.1
2017-05-01T19:01:39.363Z,1008.3
2017-05-01T19:11:53.918Z,1008.4
2017-05-01T19:22:09.375Z,1008.5
2017-05-01T19:32:23.964Z,1008.6
2017-05-01T19:42:38.452Z,1008.6
2017-05-01T19:52:53.640Z,1008.7
2017-05-01T20:03:08.446Z,1008.8
2017-05-01T20:13:23.180Z,1008.9
2017-05-01T20:23:38.502Z,1008.8
2017-05-01T20:33:53.215Z,1008.8
2017-05-01T20:44:07.581Z,1008.7
2017-05-01T20:54:23.157Z,1008.7
2017-05-01T21:04:36.924Z,1008.7
2017-05-01T21:14:52.578Z,1008.7
2017-05-01T21:25:08.307Z,1008.8
2017-05-01T21:35:22.740Z,1008.9
2017-05-01T21:45:37.962Z,1008.9
2017-05-01T21:55:52.593Z,1009
2017-05-01T22:06:06.604Z,1008.9
2017-05-01T22:16:20.889Z,1008.9
2017-05-01T22:26:34.653Z,1009
2017-05-01T22:36:49.319Z,1009.1
2017-05-01T22:47:05.043Z,1009.1
2017-05-01T22:57:20.278Z,1009.1
2017-05-01T23:07:35.716Z,1009
2017-05-01T23:17:49.820Z,1009.1
2017-05-01T23:28:04.952Z,1009.1
2017-05-01T23:38:19.178Z,1009.2
2017-05-01T23:48:34.636Z,1009.1
2017-05-01T23:58:49.770Z,1009.2
